Data for 04/02/2013

Time Sea-Level Adjusted Pressure Absolute Pressure Temperature Relative Humidity Dew Point   
(mb) (inHg) (mb) (inHg) (C) (F) (%) (C) (F)
00:05 1018 30.06 847 25.01 4.9 40.9 36 -8.9 16
00:10 1018 30.06 847 25.01 4.9 40.8 36 -8.8 16.2
00:15 1018 30.06 847 25.01 4.7 40.5 37 -8.7 16.4
00:20 1018 30.06 847 25.01 4.7 40.4 37 -8.8 16.2
00:25 1018 30.06 847 25.01 4.7 40.4 37 -8.8 16.2
00:30 1018 30.06 847 25.01 4.6 40.3 38 -8.6 16.5
00:35 1018 30.06 847 25.01 4.5 40.1 38 -8.6 16.5
00:40 1018 30.06 847 25.01 4.5 40.1 38 -8.8 16.2
00:45 1018 30.06 847 25.01 4.5 40.1 38 -8.6 16.5
00:50 1018 30.06 847 25.01 4.4 40 38 -8.6 16.5
00:55 1018 30.06 847 25.01 4.3 39.8 39 -8.5 16.8
01:00 1018 30.06 847 25.01 4.1 39.4 40 -8.4 16.9
01:05 1018 30.06 847 25.01 4 39.3 40 -8.4 16.8
01:10 1018 30.06 847 25.01 4 39.1 40 -8.3 17
01:15 1018 30.06 847 25.01 3.9 39.1 40 -8.4 16.9
01:20 1018 30.06 847 25.01 3.9 39 41 -8.3 17
01:25 1018 30.06 847 25.01 3.8 38.8 41 -8.3 17
01:30 1018 30.06 847 25.01 3.7 38.7 41 -8.2 17.3
01:35 1018 30.06 847 25.01 3.6 38.5 42 -8.3 17.1
01:40 1018 30.06 847 25.01 3.6 38.5 42 -8.3 17.1
01:45 1018 30.06 847 25.01 3.7 38.7 41 -8.3 17.1
01:50 1018 30.06 848 25.04 3.6 38.5 42 -8.1 17.5
01:55 1018 30.06 848 25.04 3.5 38.3 42 -8.1 17.3
02:00 1018 30.06 848 25.04 3.5 38.2 43 -8.1 17.4
02:05 1018 30.06 848 25.04 3.5 38.3 42 -8.2 17.3
02:10 1018 30.06 848 25.04 3.6 38.4 42 -8.1 17.4
02:15 1018 30.06 848 25.04 3.5 38.4 42 -8.2 17.3
02:20 1018 30.06 848 25.04 3.5 38.3 42 -8.1 17.4
02:25 1018 30.06 848 25.04 3.4 38.1 43 -7.9 17.7
02:30 1018 30.06 848 25.04 3.2 37.8 44 -8 17.6
02:35 1018 30.06 848 25.04 3.1 37.7 44 -8 17.7
02:40 1018 30.06 848 25.04 3.1 37.6 44 -7.9 17.8
02:45 1018 30.06 848 25.04 2.9 37.2 45 -7.9 17.7
02:50 1018 30.06 848 25.04 2.9 37.1 46 -7.7 18.1
02:55 1018 30.06 848 25.04 2.7 36.9 46 -7.7 18.2
03:00 1019 30.09 848 25.04 2.6 36.6 47 -7.7 18.1
03:05 1019 30.09 848 25.04 2.4 36.4 48 -7.6 18.3
03:10 1019 30.09 848 25.04 2.3 36.1 48 -7.5 18.4
03:15 1019 30.09 848 25.04 2.2 36 49 -7.4 18.6
03:20 1019 30.09 848 25.04 2.2 36 48 -7.8 18
03:25 1019 30.09 848 25.04 2.4 36.2 47 -7.8 18
03:30 1019 30.09 848 25.04 2.4 36.3 48 -7.5 18.5
03:35 1019 30.09 848 25.04 2.2 36 48 -7.7 18.2
03:40 1019 30.09 848 25.04 2.1 35.8 49 -7.5 18.5
03:45 1019 30.09 848 25.04 2 35.5 49 -7.5 18.5
03:50 1019 30.09 848 25.04 1.9 35.5 50 -7.5 18.6
03:55 1019 30.09 848 25.04 1.9 35.4 49 -7.6 18.3
04:00 1019 30.09 848 25.04 2 35.6 49 -7.6 18.4
04:05 1019 30.09 848 25.04 2 35.7 49 -7.6 18.4
04:10 1019 30.09 848 25.04 2 35.6 49 -7.5 18.5
04:15 1019 30.09 848 25.04 1.9 35.4 50 -7.6 18.4
04:20 1019 30.09 848 25.04 2 35.6 49 -7.6 18.4
04:25 1019 30.09 848 25.04 1.9 35.5 50 -7.4 18.6
04:30 1019 30.09 848 25.04 1.8 35.2 50 -7.4 18.6
04:35 1019 30.09 848 25.04 1.6 35 51 -7.5 18.5
04:40 1019 30.09 848 25.04 1.6 34.9 51 -7.4 18.6
04:45 1019 30.09 848 25.04 1.6 34.8 51 -7.5 18.5
04:50 1019 30.09 848 25.04 1.6 34.8 51 -7.5 18.5
04:55 1019 30.09 848 25.04 1.7 35 50 -7.6 18.3
05:00 1019 30.09 848 25.04 1.8 35.2 50 -7.6 18.4
05:05 1019 30.09 848 25.04 1.8 35.2 51 -7.3 18.8
05:10 1019 30.09 848 25.04 1.6 34.9 52 -7.3 18.8
05:15 1019 30.09 848 25.04 1.5 34.7 52 -7.3 18.9
05:20 1019 30.09 848 25.04 1.4 34.6 52 -7.5 18.6
05:25 1019 30.09 848 25.04 1.6 34.8 52 -7.4 18.7
05:30 1019 30.09 848 25.04 1.6 34.9 52 -7.3 18.9
05:35 1019 30.09 848 25.04 1.6 34.9 52 -7.3 18.9
05:40 1019 30.09 848 25.04 1.5 34.8 52 -7.2 19
05:45 1019 30.09 848 25.04 1.5 34.7 52 -7.2 19
05:50 1019 30.09 848 25.04 1.5 34.8 53 -7.1 19.2
05:55 1019 30.09 848 25.04 1.4 34.6 53 -7 19.4
06:00 1019 30.09 848 25.04 1.3 34.4 53 -7.1 19.2
06:05 1019 30.09 848 25.04 1.4 34.5 54 -7 19.4
06:10 1019 30.09 848 25.04 1.4 34.5 54 -7 19.5
06:15 1019 30.09 848 25.04 1.4 34.4 54 -6.9 19.5
06:20 1019 30.09 848 25.04 1.4 34.6 53 -7 19.4
06:25 1019 30.09 848 25.04 1.6 34.9 53 -7 19.4
06:30 1019 30.09 848 25.04 1.7 35.1 52 -7.1 19.1
06:35 1019 30.09 848 25.04 1.9 35.4 52 -7 19.4
06:40 1019 30.09 848 25.04 1.9 35.4 52 -6.9 19.6
06:45 1019 30.09 849 25.07 1.9 35.4 52 -6.9 19.7
06:50 1019 30.09 849 25.07 2 35.6 52 -7 19.5
06:55 1019 30.09 849 25.07 2.2 36 51 -6.8 19.7
07:00 1019 30.09 849 25.07 2.4 36.3 51 -6.8 19.8
07:05 1019 30.09 849 25.07 2.8 37 49 -6.8 19.8
07:10 1019 30.09 848 25.04 3.2 37.7 48 -6.8 19.7
07:15 1019 30.09 848 25.04 3.5 38.3 47 -6.8 19.8
07:20 1019 30.09 848 25.04 3.8 38.8 47 -6.6 20.1
07:25 1019 30.09 849 25.07 4 39.3 45 -6.9 19.5
07:30 1019 30.09 849 25.07 4.4 40 44 -6.7 20
07:35 1019 30.09 849 25.07 4.6 40.3 43 -6.8 19.8
07:40 1019 30.09 849 25.07 5.4 41.7 41 -6.8 19.8
07:45 1019 30.09 849 25.07 6.1 43 39 -6.7 19.9
07:50 1019 30.09 849 25.07 6.5 43.6 38 -6.8 19.7
07:55 1019 30.09 849 25.07 6.5 43.7 38 -6.9 19.6
08:00 1019 30.09 849 25.07 6.6 43.9 37 -7 19.3
08:05 1019 30.09 849 25.07 7.3 45.1 36 -6.9 19.6
08:10 1019 30.09 849 25.07 7.5 45.5 36 -6.6 20.1
08:15 1020 30.12 849 25.07 7.5 45.5 35 -6.9 19.6
08:20 1020 30.12 849 25.07 7.6 45.7 36 -6.4 20.5
08:25 1019 30.09 849 25.07 7.3 45.1 36 -6.6 20
08:30 1019 30.09 849 25.07 7.3 45.2 36 -6.7 20
08:35 1019 30.09 849 25.07 7.7 45.9 34 -7.2 19
08:40 1019 30.09 849 25.07 8.4 47.1 32 -7.1 19.1
08:45 1019 30.09 849 25.07 8.6 47.5 32 -7.1 19.3
08:50 1019 30.09 849 25.07 8.9 48 32 -6.7 19.9
08:55 1019 30.09 849 25.07 9 48.3 32 -6.8 19.7
09:00 1019 30.09 849 25.07 9.6 49.4 30 -7 19.5
09:05 1019 30.09 849 25.07 10.3 50.5 30 -6.3 20.6
09:10 1019 30.09 849 25.07 10.5 50.8 29 -6.6 20
09:15 1019 30.09 849 25.07 10.7 51.3 29 -6.7 20
09:20 1019 30.09 849 25.07 10.9 51.6 28 -6.7 20
09:25 1019 30.09 848 25.04 11.2 52.2 28 -6.4 20.5
09:30 1019 30.09 848 25.04 11.3 52.3 28 -6.5 20.4
09:35 1019 30.09 848 25.04 11.3 52.3 30 -5.8 21.6
09:40 1019 30.09 848 25.04 10.4 50.7 29 -6.7 20
09:45 1019 30.09 848 25.04 10.6 51.1 30 -6.3 20.7
09:50 1019 30.09 848 25.04 10.7 51.3 29 -6.4 20.4
09:55 1019 30.09 848 25.04 11.1 52 28 -6.5 20.3
10:00 1019 30.09 848 25.04 12 53.5 28 -6.1 21
10:05 1019 30.09 848 25.04 12.2 54 28 -5.6 21.8
10:10 1019 30.09 848 25.04 11.9 53.4 27 -6.3 20.7
10:15 1019 30.09 848 25.04 12 53.5 27 -6.2 20.8
10:20 1019 30.09 848 25.04 10.8 51.5 30 -6.2 20.8
10:25 1019 30.09 848 25.04 11.2 52.2 28 -6.6 20.2
10:30 1019 30.09 848 25.04 12.2 53.9 27 -6.2 20.8
10:35 1019 30.09 848 25.04 11.7 53.1 28 -6 21.1
10:40 1019 30.09 848 25.04 12.5 54.5 26 -6.6 20.1
10:45 1019 30.09 848 25.04 12.8 55.1 26 -6.1 21
10:50 1019 30.09 848 25.04 13.1 55.6 26 -6.1 21
10:55 1019 30.09 848 25.04 12.8 55.1 27 -5.9 21.4
11:00 1019 30.09 848 25.04 13.3 56 25 -6.1 21.1
11:05 1019 30.09 848 25.04 13.1 55.5 27 -5.6 22
11:10 1019 30.09 848 25.04 12.6 54.7 26 -6.3 20.7
11:15 1019 30.09 848 25.04 13 55.3 26 -6.1 21.1
11:20 1019 30.09 848 25.04 14 57.1 25 -5.7 21.7
11:25 1019 30.09 848 25.04 14.2 57.6 24 -5.9 21.4
11:30 1019 30.09 848 25.04 14.4 57.9 24 -5.8 21.6
11:35 1019 30.09 848 25.04 14.3 57.8 24 -6.1 21
11:40 1019 30.09 848 25.04 15.2 59.3 23 -5.8 21.6
11:45 1019 30.09 848 25.04 15.1 59.1 24 -5.5 22.2
11:50 1019 30.09 848 25.04 15.3 59.6 22 -6.1 21
11:55 1018 30.06 848 25.04 15.4 59.7 23 -5.7 21.8
12:00 1018 30.06 848 25.04 15 59 23 -6.1 20.9
12:05 1018 30.06 848 25.04 16 60.7 22 -5.9 21.4
12:10 1018 30.06 848 25.04 15.9 60.5 22 -5.8 21.5
12:15 1018 30.06 847 25.01 16.2 61.1 21 -6.1 21
12:20 1018 30.06 847 25.01 15.6 60 21 -6.5 20.4
12:25 1018 30.06 847 25.01 16.3 61.4 21 -6.1 21
12:30 1018 30.06 847 25.01 16.9 62.5 20 -5.9 21.3
12:35 1018 30.06 847 25.01 17.1 62.8 20 -5.7 21.7
12:40 1018 30.06 847 25.01 16.6 61.8 20 -6.4 20.4
12:45 1018 30.06 847 25.01 16.2 61.2 23 -5.1 22.8
12:50 1018 30.06 847 25.01 15.7 60.2 21 -6.4 20.4
12:55 1018 30.06 847 25.01 16.6 61.9 20 -6.1 21
13:00 1018 30.06 847 25.01 16.7 62.1 21 -5.9 21.4
13:05 1018 30.06 847 25.01 17 62.6 20 -6.1 20.9
13:10 1018 30.06 847 25.01 17 62.7 20 -6 21.2
13:15 1018 30.06 847 25.01 17 62.6 20 -5.9 21.4
13:20 1018 30.06 847 25.01 17 62.6 19 -6.7 19.9
13:25 1018 30.06 847 25.01 17.2 63 19 -6.2 20.9
13:30 1018 30.06 847 25.01 17 62.6 19 -6.5 20.3
13:35 1018 30.06 847 25.01 17.1 62.7 20 -6.2 20.9
13:40 1017 30.03 847 25.01 17.1 62.7 20 -6.3 20.7
13:45 1017 30.03 847 25.01 17.1 62.8 19 -6.8 19.8
13:50 1017 30.03 847 25.01 17.5 63.4 18 -7.3 18.8
13:55 1017 30.03 847 25.01 17.3 63.2 18 -6.8 19.7
14:00 1017 30.03 847 25.01 17.5 63.4 19 -6.6 20.1
14:05 1017 30.03 847 25.01 17.2 63 19 -6.6 20.2
14:10 1017 30.03 846 24.98 17.7 63.9 19 -6.4 20.5
14:15 1017 30.03 846 24.98 17.2 62.9 19 -6.7 19.9
14:20 1017 30.03 846 24.98 18 64.4 17 -7.5 18.5
14:25 1017 30.03 846 24.98 18.2 64.8 19 -6 21.2
14:30 1017 30.03 846 24.98 17.6 63.6 18 -6.9 19.6
14:35 1017 30.03 846 24.98 18.1 64.6 18 -6.7 19.9
14:40 1017 30.03 846 24.98 18.1 64.5 17 -7.2 19.1
14:45 1017 30.03 846 24.98 18.2 64.7 19 -5.8 21.5
14:50 1017 30.03 846 24.98 17.3 63.2 19 -6.6 20.1
14:55 1017 30.03 846 24.98 18.3 64.9 17 -7.5 18.5
15:00 1017 30.03 846 24.98 17.6 63.7 19 -6.2 20.9
15:05 1017 30.03 846 24.98 17.4 63.3 17 -7.8 18
15:10 1017 30.03 846 24.98 17.6 63.7 18 -7.2 19
15:15 1017 30.03 846 24.98 18 64.3 17 -7 19.4
15:20 1017 30.03 846 24.98 18.7 65.6 16 -7.7 18.2
15:25 1017 30.03 846 24.98 18.8 65.9 16 -7.3 18.9
15:30 1017 30.03 846 24.98 18.5 65.2 16 -8 17.6
15:35 1017 30.03 846 24.98 18.8 65.9 17 -6.9 19.6
15:40 1017 30.03 846 24.98 19 66.1 15 -7.8 17.9
15:45 1017 30.03 846 24.98 19 66.2 15 -7.9 17.8
15:50 1016 30 846 24.98 18.2 64.7 16 -8.3 17
15:55 1016 30 846 24.98 18.2 64.8 17 -7.3 18.8
16:00 1016 30 846 24.98 18.5 65.2 15 -8.5 16.7
16:05 1016 30 846 24.98 18.4 65 16 -8.2 17.3
16:10 1016 30 845 24.95 18.5 65.4 15 -8.3 17.1
16:15 1016 30 845 24.95 18.6 65.5 15 -8.2 17.3
16:20 1016 30 845 24.95 18.7 65.6 15 -8.1 17.3
16:25 1016 30 845 24.95 18.6 65.5 15 -8.3 17.1
16:30 1016 30 845 24.95 18.2 64.8 16 -8.3 17.1
16:35 1016 30 845 24.95 18.5 65.4 16 -8.1 17.5
16:40 1016 30 845 24.95 18.4 65 15 -8.6 16.4
16:45 1016 30 845 24.95 18.6 65.6 15 -8.4 16.8
16:50 1016 30 845 24.95 18.7 65.7 15 -8.2 17.2
16:55 1016 30 845 24.95 18.5 65.2 17 -7.1 19.3
17:00 1016 30 845 24.95 18.1 64.5 16 -7.8 18
17:05 1016 30 845 24.95 18.2 64.7 16 -8.3 17
17:10 1016 30 845 24.95 18.1 64.6 17 -7.5 18.5
17:15 1016 30 845 24.95 17.2 62.9 18 -7.5 18.4
17:20 1016 30 845 24.95 17 62.7 18 -7.7 18.1
17:25 1016 30 845 24.95 17.3 63.2 18 -7.4 18.6
17:30 1016 30 845 24.95 17.6 63.6 17 -7.5 18.5
17:35 1016 30 845 24.95 17.4 63.3 17 -7.4 18.6
17:40 1016 30 845 24.95 17.3 63.2 18 -7 19.4
17:45 1016 30 845 24.95 17.2 62.9 18 -7.3 18.9
17:50 1016 30 845 24.95 16.9 62.5 18 -7.4 18.7
17:55 1016 30 845 24.95 16.9 62.3 19 -7.2 19.1
18:00 1016 30 845 24.95 16.8 62.2 18 -7.4 18.7
18:05 1016 30 845 24.95 16.7 62 19 -7.3 18.8
18:10 1016 30 845 24.95 16.6 61.9 19 -7.2 19.1
18:15 1016 30 845 24.95 16.5 61.7 19 -7.3 18.9
18:20 1016 30 845 24.95 16.5 61.7 19 -6.9 19.5
18:25 1016 30 845 24.95 16.4 61.5 19 -7 19.3
18:30 1016 30 845 24.95 16.2 61.2 20 -6.8 19.8
18:35 1016 30 845 24.95 16.2 61.1 20 -6.9 19.5
18:40 1016 30 845 24.95 16 60.7 20 -7 19.4
18:45 1016 30 845 24.95 15.9 60.6 20 -7.1 19.2
18:50 1016 30 845 24.95 15.8 60.5 20 -6.8 19.7
18:55 1016 30 845 24.95 15.7 60.2 21 -6.7 20
19:00 1016 30 845 24.95 15.2 59.4 24 -5.3 22.4
19:05 1016 30 845 24.95 14.1 57.4 26 -5.2 22.6
19:10 1016 30 845 24.95 13.5 56.2 27 -5.1 22.8
19:15 1016 30 845 24.95 12.9 55.3 28 -5.2 22.6
19:20 1016 30 845 24.95 12.5 54.4 29 -5.1 22.7
19:25 1016 30 845 24.95 12.1 53.8 29 -5.1 22.8
19:30 1016 30 845 24.95 11.8 53.2 30 -5 23
19:35 1016 30 845 24.95 11.3 52.3 32 -4.9 23.2
19:40 1016 30 845 24.95 10.9 51.6 33 -4.9 23.1
19:45 1016 30 845 24.95 10.6 51 33 -5.1 22.9
19:50 1016 30 845 24.95 10.4 50.7 33 -5.1 22.9
19:55 1016 30 845 24.95 10.2 50.3 34 -5 22.9
20:00 1016 30 845 24.95 10 50 34 -5.1 22.8
20:05 1016 30 845 24.95 9.8 49.7 34 -5.1 22.9
20:10 1016 30 845 24.95 9.7 49.5 35 -5 22.9
20:15 1016 30 845 24.95 9.6 49.2 35 -5.1 22.8
20:20 1016 30 845 24.95 9.5 49.2 35 -5.2 22.6
20:25 1016 30 845 24.95 9.6 49.2 34 -5.4 22.2
20:30 1016 30 845 24.95 9.6 49.2 34 -5.4 22.2
20:35 1016 30 845 24.95 9.6 49.3 34 -5.4 22.3
20:40 1016 30 845 24.95 9.5 49.1 35 -5.3 22.5
20:45 1016 30 845 24.95 9.4 48.9 35 -5.3 22.5
20:50 1016 30 845 24.95 9.3 48.8 35 -5.3 22.4
20:55 1016 30 845 24.95 9.3 48.7 35 -5.4 22.3
21:00 1016 30 845 24.95 9.2 48.6 35 -5.5 22.1
21:05 1016 30 845 24.95 9.3 48.7 34 -5.6 21.9
21:10 1016 30 845 24.95 9.3 48.7 34 -5.6 21.9
21:15 1016 30 845 24.95 9.5 49 33 -5.9 21.4
21:20 1016 30 846 24.98 9.7 49.4 34 -5.5 22.1
21:25 1016 30 846 24.98 9.5 49.1 34 -5.6 22
21:30 1017 30.03 846 24.98 9.4 48.9 35 -5.3 22.4
21:35 1017 30.03 846 24.98 9.2 48.5 36 -5.2 22.7
21:40 1017 30.03 846 24.98 9 48.2 37 -4.9 23.2
21:45 1017 30.03 846 24.98 8.9 48 37 -5 23.1
21:50 1017 30.03 846 24.98 8.9 48 37 -5.1 22.8
21:55 1017 30.03 846 24.98 8.7 47.7 38 -4.8 23.3
22:00 1017 30.03 846 24.98 8.4 47.1 39 -4.7 23.5
22:05 1017 30.03 846 24.98 8.5 47.3 39 -4.8 23.3
22:10 1017 30.03 846 24.98 8.6 47.4 39 -4.6 23.7
22:15 1017 30.03 846 24.98 8.7 47.6 39 -4.7 23.6
22:20 1017 30.03 846 24.98 8.9 48 39 -4.5 23.9
22:25 1017 30.03 846 24.98 8.9 47.9 39 -4.3 24.3
22:30 1017 30.03 846 24.98 8.8 47.9 39 -4.4 24.1
22:35 1017 30.03 846 24.98 9 48.1 38 -4.4 24
22:40 1017 30.03 847 25.01 9 48.2 39 -4.2 24.4
22:45 1017 30.03 847 25.01 9.2 48.6 39 -4.1 24.6
22:50 1017 30.03 847 25.01 9.8 49.6 38 -4 24.8
22:55 1017 30.03 847 25.01 10.1 50.2 37 -4 24.8
23:00 1017 30.03 847 25.01 10.3 50.5 39 -3.2 26.3
23:05 1017 30.03 847 25.01 9.4 48.8 42 -2.7 27.1
23:10 1017 30.03 847 25.01 8.6 47.5 44 -2.8 27
23:15 1017 30.03 847 25.01 8.1 46.7 46 -2.6 27.3
23:20 1017 30.03 847 25.01 8.5 47.2 43 -3.2 26.2
23:25 1017 30.03 847 25.01 8.8 47.8 43 -3 26.5
23:30 1018 30.06 847 25.01 8.4 47.1 46 -2.5 27.6
23:35 1018 30.06 847 25.01 7.8 46 47 -2.7 27.2
23:40 1018 30.06 847 25.01 7.6 45.6 47 -3 26.6
23:45 1018 30.06 847 25.01 7.4 45.3 49 -2.7 27.2
23:50 1018 30.06 847 25.01 7.4 45.4 48 -2.9 26.8
23:55 1018 30.06 847 25.01 7.4 45.4 48 -2.9 26.7
24:00 1018 30.06 847 25.01 7.4 45.4 49 -2.7 27.2